Time;durP1;ratioP1;P1;durP2;ratioP2;P2;SDS_P1;SDS_P2;PMS_P1;PMS_P2;Temp;Humidity;BMP_temperature;BMP_pressure;BME280_temperature;BME280_humidity;BME280_pressure;Samples;Min_cycle;Max_cycle;Signal;HPM_P1;HPM_P2
2020/12/07 00:01:14;;;;;;;32.20;17.08;;;;;;;6.94;98.70;97431.72;5067130;28;20033;-84
2020/12/07 00:03:39;;;;;;;32.53;16.70;;;;;;;6.98;98.68;97427.97;5092415;28;20483;-85
2020/12/07 00:06:05;;;;;;;35.95;18.45;;;;;;;7.01;98.47;97433.97;5070019;28;20376;-85
2020/12/07 00:08:31;;;;;;;32.28;17.52;;;;;;;7.02;97.71;97437.50;5064346;28;20039;-84
2020/12/07 00:10:56;;;;;;;31.15;16.60;;;;;;;6.97;98.16;97432.41;5062708;28;20110;-84
2020/12/07 00:13:22;;;;;;;34.72;17.85;;;;;;;6.97;98.23;97437.75;5056483;28;20039;-85
2020/12/07 00:15:47;;;;;;;35.75;17.45;;;;;;;6.98;98.31;97455.38;5057817;28;20036;-84
2020/12/07 00:18:13;;;;;;;28.17;14.68;;;;;;;6.94;98.66;97440.56;5077610;28;20476;-84
2020/12/07 00:20:39;;;;;;;34.00;17.38;;;;;;;6.88;98.51;97432.00;5055552;28;20064;-85
2020/12/07 00:23:06;;;;;;;34.60;17.88;;;;;;;6.81;99.66;97426.13;5075287;28;20035;-85
2020/12/07 00:25:31;;;;;;;31.50;15.35;;;;;;;6.90;98.96;97435.44;5075545;28;20067;-85
2020/12/07 00:27:57;;;;;;;33.92;17.20;;;;;;;6.93;99.05;97444.13;5074899;28;20027;-85
2020/12/07 00:30:22;;;;;;;33.22;16.52;;;;;;;6.84;99.16;97441.06;5074450;28;20044;-83
2020/12/07 00:32:48;;;;;;;27.58;14.00;;;;;;;6.71;99.49;97434.59;5054858;28;20401;-85
2020/12/07 00:35:14;;;;;;;19.65;10.20;;;;;;;6.79;98.80;97437.78;5060234;28;20035;-83
2020/12/07 00:37:39;;;;;;;16.45;9.02;;;;;;;6.74;98.38;97440.66;5074495;28;20141;-85
2020/12/07 00:40:05;;;;;;;19.10;9.98;;;;;;;6.73;98.92;97432.75;5062539;28;20090;-85
2020/12/07 00:42:30;;;;;;;20.98;11.55;;;;;;;6.69;98.97;97432.03;5071155;28;20098;-85
2020/12/07 00:44:56;;;;;;;15.85;8.90;;;;;;;6.65;99.07;97432.25;5065670;28;20028;-84
2020/12/07 00:47:22;;;;;;;14.85;7.80;;;;;;;6.63;98.96;97428.81;5074711;28;20055;-84
2020/12/07 00:49:47;;;;;;;18.00;9.88;;;;;;;6.56;99.07;97428.25;5064821;28;20032;-84
2020/12/07 00:52:13;;;;;;;17.45;9.45;;;;;;;6.48;99.26;97423.31;5054142;28;20111;-84
2020/12/07 00:54:38;;;;;;;16.92;9.30;;;;;;;6.46;99.88;97424.31;5054211;28;20029;-84
2020/12/07 00:57:04;;;;;;;13.93;7.72;;;;;;;6.54;99.59;97420.38;5054354;28;20032;-84
2020/12/07 00:59:30;;;;;;;16.33;9.35;;;;;;;6.51;99.81;97433.78;5061552;28;20383;-84
2020/12/07 01:01:56;;;;;;;19.40;9.05;;;;;;;6.42;100.00;97426.28;5066189;28;20016;-84
2020/12/07 01:04:23;;;;;;;16.75;8.93;;;;;;;6.48;100.00;97409.16;5075417;28;20070;-84
2020/12/07 01:06:49;;;;;;;15.32;8.57;;;;;;;6.52;99.73;97416.06;5064130;28;20035;-84
2020/12/07 01:09:19;;;;;;;14.40;8.20;;;;;;;6.48;99.64;97411.81;5054101;28;20504;-84
2020/12/07 01:11:46;;;;;;;17.98;9.70;;;;;;;6.39;99.69;97401.63;5072002;28;20039;-85
2020/12/07 01:14:13;;;;;;;14.52;8.30;;;;;;;6.37;99.80;97403.47;5061312;28;20024;-85
2020/12/07 01:16:39;;;;;;;18.05;9.50;;;;;;;6.34;100.00;97396.53;5054205;28;20024;-85
2020/12/07 01:19:05;;;;;;;15.80;8.77;;;;;;;6.44;99.89;97403.13;5065994;28;20564;-84
2020/12/07 01:21:35;;;;;;;15.75;8.50;;;;;;;6.50;99.46;97416.13;5073951;28;20102;-84
2020/12/07 01:24:00;;;;;;;16.13;9.20;;;;;;;6.56;99.05;97409.66;5073645;28;20055;-83
2020/12/07 01:26:26;;;;;;;14.60;8.27;;;;;;;6.55;99.19;97402.63;5065381;28;20090;-84
2020/12/07 01:28:53;;;;;;;15.52;8.32;;;;;;;6.47;99.54;97388.84;5071820;28;20024;-84
2020/12/07 01:31:19;;;;;;;16.63;8.93;;;;;;;6.47;99.17;97394.16;5067345;28;20048;-85
2020/12/07 01:33:45;;;;;;;17.70;9.20;;;;;;;6.45;99.13;97383.63;5073518;28;20032;-84
2020/12/07 01:36:11;;;;;;;15.75;8.70;;;;;;;6.56;98.67;97388.38;5074398;28;20458;-84
2020/12/07 01:38:37;;;;;;;16.60;9.30;;;;;;;6.42;99.79;97373.13;5065651;28;20393;-85
2020/12/07 01:41:02;;;;;;;26.80;11.35;;;;;;;6.40;100.00;97367.00;5062338;28;20095;-86
2020/12/07 01:43:28;;;;;;;23.20;11.88;;;;;;;6.22;100.00;97361.72;5054058;28;20021;-84
2020/12/07 01:45:55;;;;;;;27.30;12.05;;;;;;;6.25;100.00;97373.06;5055316;28;20039;-84
2020/12/07 01:48:21;;;;;;;32.88;12.27;;;;;;;6.30;100.00;97359.59;5068297;28;20086;-85
2020/12/07 01:50:46;;;;;;;26.17;12.32;;;;;;;6.30;100.00;97357.78;5087495;28;20032;-84
2020/12/07 01:53:12;;;;;;;32.88;14.05;;;;;;;6.13;100.00;97351.53;5082718;28;20050;-85
2020/12/07 01:55:39;;;;;;;35.08;13.43;;;;;;;6.19;100.00;97364.53;5068987;28;20032;-83
2020/12/07 01:58:05;;;;;;;34.58;13.65;;;;;;;6.17;100.00;97361.09;5068701;28;20032;-85
2020/12/07 02:00:31;;;;;;;34.50;14.20;;;;;;;6.30;100.00;97368.41;5077095;28;20429;-84
2020/12/07 02:02:56;;;;;;;35.10;13.82;;;;;;;6.09;100.00;97360.59;5059605;28;20029;-84
2020/12/07 02:05:23;;;;;;;33.92;13.70;;;;;;;6.06;100.00;97347.47;5071462;28;20035;-84
2020/12/07 02:07:49;;;;;;;41.20;14.77;;;;;;;6.12;100.00;97365.78;5060420;28;20111;-84
2020/12/07 02:10:15;;;;;;;35.83;14.40;;;;;;;6.10;100.00;97368.47;5070070;28;20483;-84
2020/12/07 02:12:41;;;;;;;33.22;12.73;;;;;;;6.16;100.00;97352.25;5077566;28;20030;-84
2020/12/07 02:15:06;;;;;;;37.50;14.23;;;;;;;6.24;100.00;97350.13;5073808;28;20032;-83
2020/12/07 02:17:32;;;;;;;36.10;13.60;;;;;;;6.27;100.00;97354.41;5057211;28;20032;-84
2020/12/07 02:19:57;;;;;;;35.08;13.40;;;;;;;6.20;100.00;97352.97;5057258;28;20538;-83
2020/12/07 02:22:23;;;;;;;33.85;12.73;;;;;;;6.01;100.00;97347.69;5070582;28;20100;-84
2020/12/07 02:24:49;;;;;;;38.50;13.65;;;;;;;6.08;100.00;97346.47;5068417;28;20537;-84
2020/12/07 02:27:14;;;;;;;34.50;12.98;;;;;;;6.14;100.00;97345.31;5076430;28;20039;-83
2020/12/07 02:29:40;;;;;;;30.15;12.18;;;;;;;6.16;100.00;97338.13;5076334;28;20035;-84
2020/12/07 02:32:16;;;;;;;28.02;12.10;;;;;;;6.13;100.00;97335.59;5068513;28;20036;-84
2020/12/07 02:34:43;;;;;;;24.27;11.00;;;;;;;6.03;100.00;97344.97;5076513;28;20027;-84
2020/12/07 02:37:09;;;;;;;31.35;12.10;;;;;;;6.07;100.00;97342.09;5073380;28;20407;-83
2020/12/07 02:39:35;;;;;;;34.88;12.00;;;;;;;6.09;100.00;97342.03;5056367;28;20036;-84
2020/12/07 02:42:05;;;;;;;28.83;11.07;;;;;;;6.08;100.00;97342.94;5056060;28;20090;-84
2020/12/07 02:44:31;;;;;;;27.77;11.52;;;;;;;6.17;100.00;97345.16;5056551;28;20044;-84
2020/12/07 02:46:58;;;;;;;29.23;12.55;;;;;;;6.17;100.00;97342.50;5065233;28;20040;-84
2020/12/07 02:49:24;;;;;;;37.85;15.88;;;;;;;6.18;100.00;97353.06;5063273;28;20454;-84
2020/12/07 02:51:50;;;;;;;42.60;19.08;;;;;;;6.18;100.00;97354.84;5073049;28;20051;-85
2020/12/07 02:54:16;;;;;;;36.25;16.40;;;;;;;6.23;100.00;97351.03;5068472;28;20070;-85
2020/12/07 02:56:42;;;;;;;28.27;12.82;;;;;;;6.19;100.00;97351.25;5070080;28;20039;-85
2020/12/07 02:59:07;;;;;;;46.85;12.75;;;;;;;6.24;100.00;97359.88;5056341;28;20032;-85
2020/12/07 03:01:33;;;;;;;29.08;12.90;;;;;;;6.19;100.00;97356.56;5061798;28;20043;-85
2020/12/07 03:03:59;;;;;;;35.30;13.15;;;;;;;6.26;100.00;97373.94;5083781;28;20033;-85
2020/12/07 03:06:24;;;;;;;29.65;11.50;;;;;;;6.18;100.00;97365.47;5067233;28;20139;-85
2020/12/07 03:08:50;;;;;;;32.47;12.93;;;;;;;6.12;100.00;97360.47;5059799;28;20102;-85
2020/12/07 03:11:15;;;;;;;34.47;13.15;;;;;;;6.02;100.00;97356.50;5092368;28;20465;-84
2020/12/07 03:13:41;;;;;;;34.13;12.93;;;;;;;6.09;100.00;97376.53;5075536;28;20035;-84
2020/12/07 03:16:07;;;;;;;30.80;12.73;;;;;;;6.06;100.00;97366.91;5057491;28;20036;-84
2020/12/07 03:18:32;;;;;;;32.33;13.27;;;;;;;6.12;100.00;97371.09;5086705;28;20036;-85
2020/12/07 03:20:58;;;;;;;37.80;16.42;;;;;;;6.12;100.00;97349.84;5067708;28;20036;-84
2020/12/07 03:23:23;;;;;;;37.75;14.55;;;;;;;6.14;100.00;97353.28;5056735;28;20471;-84
2020/12/07 03:25:49;;;;;;;33.33;13.55;;;;;;;6.00;100.00;97349.47;5064123;28;20027;-85
2020/12/07 03:28:15;;;;;;;34.28;12.82;;;;;;;5.91;100.00;97341.06;5073232;28;20482;-84
2020/12/07 03:30:40;;;;;;;35.63;12.82;;;;;;;5.93;100.00;97344.53;5055481;28;20056;-83
2020/12/07 03:33:06;;;;;;;35.15;12.73;;;;;;;5.82;100.00;97330.84;5056632;28;20104;-84
2020/12/07 03:35:31;;;;;;;42.35;19.20;;;;;;;5.82;100.00;97344.13;5061048;28;20035;-84
2020/12/07 03:37:57;;;;;;;40.80;16.80;;;;;;;5.70;100.00;97347.34;5067263;28;20055;-83
2020/12/07 03:40:22;;;;;;;31.98;12.98;;;;;;;5.69;100.00;97351.78;5058207;28;20091;-84
2020/12/07 03:42:48;;;;;;;38.13;14.38;;;;;;;5.66;100.00;97351.94;5075386;28;20028;-84
2020/12/07 03:45:14;;;;;;;47.80;15.30;;;;;;;5.63;100.00;97352.06;5065108;28;20120;-84
2020/12/07 03:47:39;;;;;;;58.08;17.35;;;;;;;5.62;100.00;97365.41;5072333;28;20020;-86
2020/12/07 03:50:05;;;;;;;47.83;15.80;;;;;;;5.71;100.00;97355.25;5055855;28;20028;-84
2020/12/07 03:52:30;;;;;;;49.45;16.27;;;;;;;5.77;100.00;97359.41;5058842;28;20062;-84
2020/12/07 03:54:56;;;;;;;38.63;14.80;;;;;;;5.79;100.00;97362.84;5074817;28;20155;-84
2020/12/07 03:57:22;;;;;;;33.50;13.40;;;;;;;5.87;100.00;97358.09;5074981;28;20072;-85
2020/12/07 03:59:47;;;;;;;29.38;11.15;;;;;;;5.95;100.00;97366.53;5068812;28;20665;-82
2020/12/07 04:02:13;;;;;;;26.38;12.60;;;;;;;6.01;100.00;97363.59;5064142;28;20467;-84
2020/12/07 04:04:49;;;;;;;21.73;10.32;;;;;;;6.08;100.00;97370.38;5074798;28;20028;-84
2020/12/07 04:07:15;;;;;;;25.45;10.15;;;;;;;5.98;100.00;97364.63;5058544;28;20020;-84
2020/12/07 04:09:41;;;;;;;30.02;11.32;;;;;;;6.05;100.00;97361.69;5063503;28;20560;-83
2020/12/07 04:12:06;;;;;;;25.20;12.05;;;;;;;6.09;100.00;97350.00;5062650;28;20490;-83
2020/12/07 04:14:32;;;;;;;28.33;11.60;;;;;;;6.10;100.00;97352.56;5054677;28;20036;-84
2020/12/07 04:16:57;;;;;;;23.63;10.60;;;;;;;6.08;100.00;97365.06;5062116;28;20028;-85
2020/12/07 04:19:23;;;;;;;26.10;11.98;;;;;;;6.14;100.00;97364.75;5066500;28;20024;-84
2020/12/07 04:21:49;;;;;;;27.80;12.27;;;;;;;6.03;100.00;97355.59;5075432;28;20032;-85
2020/12/07 04:24:14;;;;;;;29.60;13.88;;;;;;;6.08;100.00;97364.19;5074939;28;20035;-84
2020/12/07 04:26:40;;;;;;;36.78;16.00;;;;;;;6.17;100.00;97359.31;5075074;28;20038;-85
2020/12/07 04:29:05;;;;;;;30.85;15.38;;;;;;;6.12;100.00;97365.78;5059115;28;20033;-84
2020/12/07 04:31:31;;;;;;;35.92;15.60;;;;;;;6.08;100.00;97370.38;5066891;28;20401;-84
2020/12/07 04:33:57;;;;;;;36.80;17.35;;;;;;;6.15;100.00;97381.56;5091594;28;20099;-84
2020/12/07 04:36:22;;;;;;;36.40;17.38;;;;;;;6.19;100.00;97367.19;5075037;28;20043;-84
2020/12/07 04:38:48;;;;;;;34.00;15.48;;;;;;;6.24;100.00;97362.53;5075738;28;20024;-85
2020/12/07 04:41:14;;;;;;;37.88;18.70;;;;;;;6.28;100.00;97364.94;5056662;28;20454;-83
2020/12/07 04:43:40;;;;;;;38.92;18.35;;;;;;;6.17;100.00;97358.44;5054597;28;20103;-85
2020/12/07 04:46:06;;;;;;;43.13;20.52;;;;;;;6.22;100.00;97367.03;5056107;28;20032;-79
2020/12/07 04:48:32;;;;;;;43.95;20.02;;;;;;;6.20;100.00;97364.47;5061982;28;20407;-76
2020/12/07 04:50:59;;;;;;;32.47;14.27;;;;;;;6.14;100.00;97353.28;5053507;28;20051;-76
2020/12/07 04:53:25;;;;;;;32.60;11.50;;;;;;;6.04;100.00;97344.88;5061850;28;20062;-76
2020/12/07 04:55:51;;;;;;;29.50;12.38;;;;;;;6.08;100.00;97338.50;5059115;28;20024;-76
2020/12/07 04:58:17;;;;;;;36.85;13.13;;;;;;;5.91;100.00;97347.25;5056597;28;20035;-75
2020/12/07 05:00:42;;;;;;;35.35;13.88;;;;;;;5.94;100.00;97349.75;5081997;28;20016;-75
2020/12/07 05:03:08;;;;;;;38.17;14.48;;;;;;;5.92;100.00;97348.97;5064907;28;20053;-76
2020/12/07 05:05:35;;;;;;;38.90;14.27;;;;;;;5.91;100.00;97347.25;5086658;28;20103;-76
2020/12/07 05:08:02;;;;;;;46.85;14.90;;;;;;;6.00;100.00;97354.78;5084939;28;20465;-75
2020/12/07 05:10:36;;;;;;;35.80;13.48;;;;;;;6.09;100.00;97355.28;5073068;28;20028;-77
2020/12/07 05:13:11;;;;;;;58.15;13.82;;;;;;;6.10;100.00;97341.06;5084599;28;20495;-77
2020/12/07 05:15:41;;;;;;;38.65;14.63;;;;;;;6.10;100.00;97347.25;5065904;28;20364;-74
2020/12/07 05:18:06;;;;;;;38.70;13.15;;;;;;;6.12;100.00;97339.22;5073623;28;20016;-77
2020/12/07 05:20:32;;;;;;;40.70;13.75;;;;;;;6.12;100.00;97347.19;5081846;28;20103;-76
2020/12/07 05:22:59;;;;;;;39.53;15.02;;;;;;;5.97;100.00;97330.16;5089763;28;20020;-77
2020/12/07 05:25:25;;;;;;;67.97;15.90;;;;;;;5.94;100.00;97343.59;5054656;28;20500;-77
2020/12/07 05:27:52;;;;;;;46.17;15.50;;;;;;;6.03;100.00;97344.97;5057871;28;20061;-76
2020/12/07 05:30:24;;;;;;;45.20;15.32;;;;;;;6.01;100.00;97337.06;5065673;28;20048;-76
2020/12/07 05:32:50;;;;;;;31.10;13.13;;;;;;;6.08;100.00;97337.63;5063655;28;20062;-77
2020/12/07 05:35:16;;;;;;;46.33;15.73;;;;;;;6.04;100.00;97336.91;5086462;28;20051;-76
2020/12/07 05:37:41;;;;;;;50.97;15.50;;;;;;;6.09;100.00;97344.69;5057386;28;20119;-76
2020/12/07 05:40:14;;;;;;;39.45;14.60;;;;;;;6.11;100.00;97348.09;5057932;28;20045;-76
2020/12/07 05:42:41;;;;;;;37.97;13.68;;;;;;;6.19;100.00;97346.81;5093863;28;20414;-77
2020/12/07 05:45:08;;;;;;;52.50;18.58;;;;;;;6.11;100.00;97348.09;5077318;28;20467;-76
2020/12/07 05:47:37;;;;;;;49.30;16.83;;;;;;;6.15;100.00;97349.69;5072973;28;20056;-76
2020/12/07 05:50:03;;;;;;;35.38;13.18;;;;;;;6.05;100.00;97354.56;5056554;28;20050;-75
2020/12/07 05:52:35;;;;;;;41.88;14.27;;;;;;;6.08;100.00;97348.25;5059196;28;20028;-75
2020/12/07 05:55:02;;;;;;;41.67;14.32;;;;;;;6.13;100.00;97335.59;5061276;28;20028;-75
2020/12/07 05:57:30;;;;;;;42.70;14.88;;;;;;;6.14;100.00;97353.28;5067013;28;20031;-76
2020/12/07 06:00:04;;;;;;;49.72;17.60;;;;;;;6.16;100.00;97346.94;5068261;28;20031;-79
2020/12/07 06:02:30;;;;;;;57.50;19.73;;;;;;;6.14;100.00;97351.50;5083450;28;20027;-76
2020/12/07 06:04:56;;;;;;;46.60;15.45;;;;;;;6.21;100.00;97350.28;5072223;28;20034;-76
2020/12/07 06:07:24;;;;;;;44.25;17.33;;;;;;;6.24;100.00;97349.25;5086354;28;20377;-76
2020/12/07 06:09:50;;;;;;;53.15;14.95;;;;;;;6.24;100.00;97355.44;5071981;28;20450;-76
2020/12/07 06:12:22;;;;;;;63.90;13.95;;;;;;;6.24;100.00;97354.56;5058342;28;20090;-78
2020/12/07 06:14:49;;;;;;;39.15;14.23;;;;;;;6.25;100.00;97357.13;5078567;28;20039;-76
2020/12/07 06:17:39;;;;;;;45.53;14.50;;;;;;;6.28;100.00;97356.13;5060586;28;20243;-77
2020/12/07 06:20:05;;;;;;;47.70;13.50;;;;;;;6.29;100.00;97349.88;5042494;28;20052;-75
2020/12/07 06:22:33;;;;;;;35.92;12.77;;;;;;;6.27;100.00;97349.09;5074667;28;20130;-80
2020/12/07 06:24:59;;;;;;;48.95;13.93;;;;;;;6.14;100.00;97345.31;5070185;28;20488;-78
2020/12/07 06:27:24;;;;;;;36.08;14.68;;;;;;;6.25;100.00;97356.25;5066348;28;20069;-77
2020/12/07 06:30:03;;;;;;;55.80;19.65;;;;;;;6.26;100.00;97350.03;5088349;28;20492;-77
2020/12/07 06:32:49;;;;;;;55.17;20.08;;;;;;;6.31;100.00;97355.97;5058470;28;20028;-78
2020/12/07 06:35:15;;;;;;;56.20;23.48;;;;;;;6.27;100.00;97349.97;5076649;28;20429;-77
2020/12/07 06:37:49;;;;;;;35.17;14.23;;;;;;;6.34;100.00;97346.06;5092348;28;20035;-77
2020/12/07 06:40:19;;;;;;;41.05;15.55;;;;;;;6.26;100.00;97350.03;5084085;28;20481;-77
2020/12/07 06:42:47;;;;;;;38.80;15.55;;;;;;;6.18;100.00;97354.84;5062710;28;20137;-77
2020/12/07 06:45:27;;;;;;;84.00;34.22;;;;;;;6.27;100.00;97363.25;5073927;28;20024;-77
2020/12/07 06:47:53;;;;;;;75.38;27.23;;;;;;;6.27;100.00;97357.06;5081717;28;20041;-85
2020/12/07 06:50:28;;;;;;;72.13;27.95;;;;;;;6.31;100.00;97362.16;5074973;28;20040;-81
2020/12/07 06:52:54;;;;;;;93.53;38.33;;;;;;;6.38;100.00;97350.31;5066048;28;20472;-81
2020/12/07 06:55:19;;;;;;;68.85;30.60;;;;;;;6.29;100.00;97336.59;5060053;28;20060;-82
2020/12/07 06:57:55;;;;;;;96.25;48.05;;;;;;;6.17;100.00;97345.16;5069299;28;20088;-80
2020/12/07 07:00:26;;;;;;;78.97;40.88;;;;;;;6.25;100.00;97335.88;5067256;28;20143;-82
2020/12/07 07:02:53;;;;;;;91.03;46.83;;;;;;;6.31;100.00;97334.72;5071350;28;20042;-82
2020/12/07 07:05:27;;;;;;;106.15;50.70;;;;;;;6.36;100.00;97340.69;5083885;28;20518;-81
2020/12/07 07:07:54;;;;;;;112.15;57.03;;;;;;;6.48;100.00;97332.13;5064097;28;20040;-83
2020/12/07 07:10:30;;;;;;;110.40;56.05;;;;;;;6.32;100.00;97309.91;5064979;28;20037;-81
2020/12/07 07:12:55;;;;;;;134.52;62.50;;;;;;;6.11;100.00;97321.56;5087210;28;20098;-81
2020/12/07 07:15:21;;;;;;;137.55;64.07;;;;;;;6.18;100.00;97334.47;5070313;28;20044;-82
2020/12/07 07:17:47;;;;;;;122.28;51.60;;;;;;;6.24;100.00;97326.22;5065241;28;20060;-81
2020/12/07 07:20:14;;;;;;;91.43;45.10;;;;;;;6.39;100.00;97344.06;5065468;28;20056;-80
2020/12/07 07:22:44;;;;;;;74.20;36.17;;;;;;;6.36;100.00;97324.75;5068851;28;20198;-84
2020/12/07 07:30:21;;;;;;;58.47;27.38;;;;;;;6.39;100.00;97344.06;5083427;28;20203;-84
2020/12/07 07:32:49;;;;;;;55.33;24.60;;;;;;;6.44;100.00;97341.16;5068632;28;20123;-86
2020/12/07 07:35:17;;;;;;;45.95;22.45;;;;;;;6.49;100.00;97333.84;5059134;28;20024;-85
2020/12/07 07:37:43;;;;;;;55.50;25.52;;;;;;;6.35;100.00;97341.63;5067182;28;20093;-76
2020/12/07 07:40:14;;;;;;;64.65;34.17;;;;;;;6.41;100.00;97341.31;5064699;28;20021;-77
2020/12/07 07:42:51;;;;;;;54.60;28.40;;;;;;;6.53;100.00;97341.59;5069805;28;20036;-76
2020/12/07 07:45:19;;;;;;;60.95;29.65;;;;;;;6.50;100.00;97341.72;5058999;28;20109;-75
2020/12/07 07:50:42;;;;;;;71.65;37.00;;;;;;;6.41;100.00;97342.19;5092019;28;20036;-78
2020/12/07 08:12:34;;;;;;;55.15;27.58;;;;;;;6.55;100.00;97333.56;5094821;28;20039;-78
2020/12/07 08:17:14;;;;;;;309.38;184.35;;;;;;;6.49;100.00;97339.16;5089980;28;20048;-78
2020/12/07 08:19:40;;;;;;;219.38;128.52;;;;;;;6.48;100.00;97338.31;5100853;28;20486;-77
2020/12/07 08:22:13;;;;;;;99.38;52.35;;;;;;;6.57;100.00;97326.34;5081775;28;20015;-78
2020/12/07 08:25:05;;;;;;;86.22;44.28;;;;;;;6.76;100.00;97328.94;5072629;28;20031;-77
2020/12/07 08:27:35;;;;;;;62.08;32.63;;;;;;;6.66;100.00;97339.19;5079211;28;20444;-75
2020/12/07 08:30:04;;;;;;;60.08;27.35;;;;;;;6.67;100.00;97332.94;5069279;28;20130;-77
2020/12/07 08:32:30;;;;;;;45.40;21.63;;;;;;;6.75;100.00;97335.19;5071258;28;20029;-76
2020/12/07 08:34:55;;;;;;;45.22;20.27;;;;;;;6.58;100.00;97321.91;5058353;28;20047;-76
2020/12/07 08:37:21;;;;;;;47.53;22.00;;;;;;;6.55;100.00;97329.06;5094667;28;20032;-76
2020/12/07 08:39:47;;;;;;;55.13;25.52;;;;;;;6.69;100.00;97325.75;5080476;28;20024;-76
2020/12/07 08:42:12;;;;;;;57.60;26.52;;;;;;;6.69;100.00;97319.56;5079442;28;20024;-76
2020/12/07 08:44:39;;;;;;;60.03;30.65;;;;;;;6.74;100.00;97323.69;5081436;28;20051;-77
2020/12/07 08:47:09;;;;;;;47.55;21.67;;;;;;;6.65;100.00;97316.19;5061068;28;20119;-77
2020/12/07 08:49:36;;;;;;;49.85;25.15;;;;;;;6.72;100.00;97316.75;5078411;28;20036;-78
2020/12/07 08:52:02;;;;;;;51.95;27.08;;;;;;;6.72;100.00;97308.78;5060686;28;20096;-77
2020/12/07 08:54:28;;;;;;;55.47;28.42;;;;;;;6.74;100.00;97314.84;5093165;28;20019;-77
2020/12/07 08:56:54;;;;;;;57.83;29.13;;;;;;;6.62;100.00;97307.50;5070829;28;20020;-77
2020/12/07 08:59:19;;;;;;;50.45;27.52;;;;;;;6.54;100.00;97305.25;5064053;28;20115;-77
2020/12/07 09:01:45;;;;;;;50.08;23.73;;;;;;;6.52;100.00;97302.66;5063118;28;20028;-78
2020/12/07 09:04:11;;;;;;;43.90;24.25;;;;;;;6.64;100.00;97295.88;5075566;28;20016;-77
2020/12/07 09:06:41;;;;;;;43.55;22.02;;;;;;;6.66;100.00;97288.69;5060600;28;20096;-76
2020/12/07 09:09:07;;;;;;;45.25;23.73;;;;;;;6.48;100.00;97300.25;5082147;28;20111;-78
2020/12/07 09:11:35;;;;;;;37.30;20.85;;;;;;;6.42;100.00;97296.09;5086101;28;20040;-78
2020/12/07 09:14:02;;;;;;;48.25;26.35;;;;;;;6.36;100.00;97288.44;5099161;28;20487;-79
2020/12/07 09:16:28;;;;;;;40.88;21.42;;;;;;;6.41;100.00;97298.81;5087227;28;20042;-76
2020/12/07 09:18:54;;;;;;;44.65;23.10;;;;;;;6.39;100.00;97287.41;5071200;28;20092;-77
2020/12/07 09:21:19;;;;;;;41.78;22.98;;;;;;;6.23;100.00;97292.63;5097868;28;20071;-77
2020/12/07 09:23:45;;;;;;;33.90;20.42;;;;;;;6.31;100.00;97292.22;5076691;28;20036;-77
2020/12/07 09:26:11;;;;;;;42.90;21.80;;;;;;;6.43;100.00;97284.53;5065388;28;20032;-77
2020/12/07 09:28:36;;;;;;;48.03;25.35;;;;;;;6.48;100.00;97284.31;5073173;28;20024;-74
2020/12/07 09:31:06;;;;;;;46.20;25.98;;;;;;;6.45;100.00;97281.81;5101288;28;20112;-74
2020/12/07 09:33:32;;;;;;;46.50;23.60;;;;;;;6.44;100.00;97285.38;5079076;28;20118;-76
2020/12/07 09:35:58;;;;;;;62.92;33.08;;;;;;;6.34;100.00;97270.84;5077767;28;20025;-77
2020/12/07 09:38:23;;;;;;;57.03;29.33;;;;;;;6.48;100.00;97279.84;5083311;28;20119;-76
2020/12/07 09:40:49;;;;;;;58.30;29.23;;;;;;;6.48;100.00;97273.69;5091170;28;20047;-76
2020/12/07 09:43:15;;;;;;;103.63;38.38;;;;;;;6.52;100.00;97275.25;5099789;28;20040;-76
2020/12/07 09:45:40;;;;;;;326.38;79.68;;;;;;;6.51;100.00;97268.22;5088629;28;20354;-77
2020/12/07 09:48:06;;;;;;;287.85;77.82;;;;;;;6.62;100.00;97272.97;5074537;28;20032;-75
2020/12/07 09:50:32;;;;;;;326.58;103.93;;;;;;;6.54;100.00;97262.75;5081534;28;20091;-76
2020/12/07 09:52:57;;;;;;;297.80;100.03;;;;;;;6.48;100.00;97260.41;5086010;28;20036;-76
2020/12/07 09:55:25;;;;;;;226.95;78.68;;;;;;;6.64;100.00;97264.00;5063091;28;20086;-78
2020/12/07 09:57:51;;;;;;;203.90;78.32;;;;;;;6.56;100.00;97247.56;5064578;28;20039;-75
2020/12/07 10:00:16;;;;;;;98.25;43.10;;;;;;;6.65;100.00;97260.38;5076857;28;20024;-77
2020/12/07 10:02:42;;;;;;;59.05;30.00;;;;;;;6.58;100.00;97243.06;5081581;28;20037;-76
2020/12/07 10:05:08;;;;;;;25.38;14.02;;;;;;;6.54;100.00;97242.34;5057715;28;20113;-75
2020/12/07 10:07:33;;;;;;;29.02;17.10;;;;;;;6.47;100.00;97240.94;5069919;28;20035;-75
2020/12/07 10:09:59;;;;;;;24.77;14.30;;;;;;;6.46;100.00;97247.19;5061509;28;20510;-76
2020/12/07 10:12:25;;;;;;;28.77;16.33;;;;;;;6.48;100.00;97247.13;5074651;28;20036;-76
2020/12/07 10:14:50;;;;;;;30.90;13.13;;;;;;;6.65;100.00;97251.53;5071829;28;20032;-77
2020/12/07 10:17:16;;;;;;;44.58;18.05;;;;;;;6.73;100.00;97247.59;5059722;28;20029;-76
2020/12/07 10:19:42;;;;;;;32.70;15.10;;;;;;;6.65;100.00;97243.56;5082204;28;20446;-75
2020/12/07 10:22:08;;;;;;;21.45;13.00;;;;;;;6.53;100.00;97248.59;5080242;28;20055;-76
2020/12/07 10:24:34;;;;;;;18.90;11.05;;;;;;;6.47;100.00;97240.06;5094762;28;20020;-76
2020/12/07 10:27:00;;;;;;;28.88;16.38;;;;;;;6.53;100.00;97239.75;5082816;28;20032;-77
2020/12/07 10:29:26;;;;;;;42.22;24.13;;;;;;;6.47;100.00;97240.06;5079542;28;20021;-77
2020/12/07 10:31:52;;;;;;;50.78;27.77;;;;;;;6.53;100.00;97230.00;5065939;28;20043;-77
2020/12/07 10:34:21;;;;;;;44.50;24.17;;;;;;;6.55;100.00;97238.72;5083783;28;20056;-76
2020/12/07 10:36:47;;;;;;;48.70;26.40;;;;;;;6.49;100.00;97236.38;5086287;28;20508;-77
2020/12/07 10:39:13;;;;;;;49.65;25.95;;;;;;;6.55;100.00;97237.91;5056638;28;20175;-76
2020/12/07 10:41:39;;;;;;;39.42;23.00;;;;;;;6.64;100.00;97233.91;5072748;28;20024;-75
2020/12/07 10:44:04;;;;;;;33.22;19.25;;;;;;;6.45;100.00;97226.00;5065338;28;20096;-77
2020/12/07 10:46:30;;;;;;;30.30;17.50;;;;;;;6.53;100.00;97222.03;5067869;28;20107;-76
2020/12/07 10:48:56;;;;;;;32.63;19.65;;;;;;;6.52;100.00;97219.47;5059019;28;20032;-76
2020/12/07 10:51:22;;;;;;;44.65;23.98;;;;;;;6.50;100.00;97229.28;5081228;28;20032;-75
2020/12/07 10:53:47;;;;;;;45.15;24.88;;;;;;;6.53;100.00;97218.50;5072619;28;20109;-76
2020/12/07 10:56:16;;;;;;;77.20;35.15;;;;;;;6.63;100.00;97214.44;5065917;28;20550;-76
2020/12/07 10:58:43;;;;;;;51.85;26.70;;;;;;;6.42;100.00;97207.56;5076051;28;20115;-76
2020/12/07 11:01:09;;;;;;;43.47;23.48;;;;;;;6.63;100.00;97209.13;5075927;28;20028;-77
2020/12/07 11:03:35;;;;;;;53.45;29.30;;;;;;;6.53;100.00;97213.19;5087294;28;20024;-76
2020/12/07 11:06:13;;;;;;;50.97;26.02;;;;;;;6.53;100.00;97197.25;5055026;28;20112;-76
2020/12/07 11:08:48;;;;;;;40.92;22.65;;;;;;;6.43;100.00;97203.97;5072091;28;20548;-77
2020/12/07 11:11:14;;;;;;;41.00;21.67;;;;;;;6.48;100.00;97194.84;5071800;28;20024;-76
2020/12/07 11:13:39;;;;;;;41.55;22.65;;;;;;;6.37;100.00;97196.31;5072297;28;20103;-78
2020/12/07 11:16:05;;;;;;;43.83;23.05;;;;;;;6.21;100.00;97190.94;5064644;28;20028;-78
2020/12/07 11:18:33;;;;;;;45.63;27.65;;;;;;;6.16;100.00;97187.63;5081450;28;20385;-77
2020/12/07 11:20:59;;;;;;;45.63;25.77;;;;;;;6.24;100.00;97184.63;5072887;28;20078;-75
2020/12/07 11:23:25;;;;;;;54.25;28.30;;;;;;;6.13;100.00;97177.19;5080412;28;20087;-76
2020/12/07 11:25:51;;;;;;;38.38;21.38;;;;;;;6.24;100.00;97179.31;5062474;28;20521;-75
2020/12/07 11:28:16;;;;;;;46.05;20.77;;;;;;;6.24;100.00;97181.97;5066780;28;20390;-75
2020/12/07 11:30:42;;;;;;;47.20;26.08;;;;;;;6.29;100.00;97174.59;5069986;28;20051;-78
2020/12/07 11:33:08;;;;;;;45.55;26.05;;;;;;;6.41;100.00;97179.28;5055399;28;20028;-76
2020/12/07 11:35:33;;;;;;;46.80;27.52;;;;;;;6.25;100.00;97181.00;5067662;28;20020;-75
2020/12/07 11:38:15;;;;;;;34.85;20.25;;;;;;;6.22;100.00;97175.84;5059328;28;20084;-87
2020/12/07 11:43:22;;;;;;;56.58;30.20;;;;;;;6.07;100.00;97176.63;5082968;28;20119;-85
2020/12/07 11:45:47;;;;;;;46.30;25.67;;;;;;;5.95;100.00;97165.69;5061138;28;20047;-86
2020/12/07 11:48:14;;;;;;;41.83;22.63;;;;;;;5.83;100.00;97174.22;5086027;28;20033;-85
2020/12/07 11:50:40;;;;;;;42.45;22.15;;;;;;;5.57;100.00;97171.13;5072364;28;20469;-85